createdAt,value
2018-09-24T00:00:30.932Z,20.30
2018-09-24T00:01:30.934Z,18.50
2018-09-24T00:02:31.130Z,19.80
2018-09-24T00:03:30.858Z,19.90
2018-09-24T00:04:30.847Z,18.00
2018-09-24T00:05:30.839Z,18.70
2018-09-24T00:06:30.837Z,20.50
2018-09-24T00:07:30.861Z,22.00
2018-09-24T00:08:30.814Z,18.70
2018-09-24T00:09:31.067Z,18.70
2018-09-24T00:10:31.049Z,18.40
2018-09-24T00:11:30.779Z,18.60
2018-09-24T00:12:30.817Z,17.80
2018-09-24T00:13:30.761Z,17.90
2018-09-24T00:14:30.740Z,17.70
2018-09-24T00:15:31.009Z,19.50
2018-09-24T00:16:30.734Z,18.60
2018-09-24T00:17:30.708Z,19.70
2018-09-24T00:18:30.966Z,19.50
2018-09-24T00:19:30.813Z,20.90
2018-09-24T00:20:30.706Z,19.80
2018-09-24T00:21:30.670Z,19.80
2018-09-24T00:22:30.918Z,20.20
2018-09-24T00:23:30.649Z,20.50
2018-09-24T00:24:30.765Z,20.80
2018-09-24T00:25:30.628Z,23.20
2018-09-24T00:26:30.627Z,20.20
2018-09-24T00:27:30.626Z,22.70
2018-09-24T00:28:30.589Z,19.70
2018-09-24T00:29:30.577Z,21.10
2018-09-24T00:30:30.622Z,20.30
2018-09-24T00:31:30.559Z,20.70
2018-09-24T00:32:30.564Z,20.40
2018-09-24T00:33:30.798Z,22.20
2018-09-24T00:34:30.781Z,21.50
2018-09-24T00:35:30.516Z,20.70
2018-09-24T00:36:30.501Z,21.60
2018-09-24T00:37:30.488Z,21.50
2018-09-24T00:38:30.479Z,19.70
2018-09-24T00:39:30.464Z,20.70
2018-09-24T00:40:30.455Z,20.50
2018-09-24T00:41:30.447Z,20.20
2018-09-24T00:42:30.435Z,20.10
2018-09-24T00:43:30.483Z,21.40
2018-09-24T00:44:30.441Z,21.00
2018-09-24T00:45:30.666Z,20.80
2018-09-24T00:46:30.392Z,21.30
2018-09-24T00:47:30.377Z,21.20
2018-09-24T00:48:30.380Z,22.60
2018-09-24T00:49:30.380Z,21.50
2018-09-24T00:50:30.368Z,21.10
2018-09-24T00:51:30.607Z,21.60
2018-09-24T00:52:30.323Z,22.10
2018-09-24T00:53:30.318Z,21.70
2018-09-24T00:54:30.306Z,21.70
2018-09-24T00:55:30.287Z,23.00
2018-09-24T00:56:30.543Z,23.20
2018-09-24T00:57:30.656Z,23.70
2018-09-24T00:58:30.257Z,24.00
2018-09-24T00:59:30.507Z,23.50
2018-09-24T01:00:30.253Z,24.00
2018-09-24T01:01:30.220Z,25.40
2018-09-24T01:02:30.214Z,25.50
2018-09-24T01:03:30.200Z,23.10
2018-09-24T01:04:30.187Z,24.90
2018-09-24T01:05:30.194Z,24.10
2018-09-24T01:06:30.167Z,24.80
2018-09-24T01:07:30.433Z,23.80
2018-09-24T01:08:30.669Z,24.30
2018-09-24T01:09:30.136Z,25.30
2018-09-24T01:10:30.128Z,25.30
2018-09-24T01:11:30.119Z,25.60
2018-09-24T01:12:30.353Z,25.30
2018-09-24T01:13:30.362Z,26.00
2018-09-24T01:14:30.083Z,26.40
2018-09-24T01:15:30.069Z,26.50
2018-09-24T01:16:30.058Z,26.10
2018-09-24T01:17:30.046Z,25.30
2018-09-24T01:18:31.049Z,25.30
2018-09-24T01:19:30.290Z,26.10
2018-09-24T01:20:30.020Z,25.30
2018-09-24T01:21:30.009Z,25.30
2018-09-24T01:22:30.033Z,26.00
2018-09-24T01:23:29.983Z,26.50
2018-09-24T01:24:29.965Z,27.20
2018-09-24T01:25:30.223Z,27.70
2018-09-24T01:26:29.967Z,26.50
2018-09-24T01:27:29.932Z,27.10
2018-09-24T01:28:29.924Z,26.70
2018-09-24T01:29:30.174Z,26.00
2018-09-24T01:30:29.900Z,27.40
2018-09-24T01:31:30.165Z,26.30
2018-09-24T01:32:29.887Z,25.80
2018-09-24T01:33:29.884Z,26.00
2018-09-24T01:34:29.866Z,26.20
2018-09-24T01:35:30.108Z,26.20
2018-09-24T01:36:29.838Z,26.20
2018-09-24T01:37:29.827Z,26.70
2018-09-24T01:38:29.824Z,26.00
2018-09-24T01:39:29.803Z,26.90
2018-09-24T01:40:29.787Z,25.60
2018-09-24T01:41:29.779Z,24.60
2018-09-24T01:42:29.786Z,25.20
2018-09-24T01:43:29.768Z,23.50
2018-09-24T01:44:29.748Z,24.60
2018-09-24T01:45:30.011Z,24.50
2018-09-24T01:46:29.723Z,24.80
2018-09-24T01:47:29.711Z,25.30
2018-09-24T01:48:29.701Z,24.50
2018-09-24T01:49:29.709Z,25.70
2018-09-24T01:50:29.686Z,25.40
2018-09-24T01:51:29.695Z,27.50
2018-09-24T01:52:29.654Z,24.70
2018-09-24T01:53:29.641Z,24.50
2018-09-24T01:54:29.654Z,23.70
2018-09-24T01:55:29.638Z,22.60
2018-09-24T01:56:29.617Z,23.50
2018-09-24T01:57:29.632Z,23.10
2018-09-24T01:58:29.592Z,24.40
2018-09-24T01:59:29.595Z,23.90
2018-09-24T02:00:29.573Z,24.60
2018-09-24T02:01:29.818Z,22.50
2018-09-24T02:02:29.557Z,23.20
2018-09-24T02:03:29.816Z,22.00
2018-09-24T02:04:29.521Z,23.00
2018-09-24T02:05:29.552Z,22.60
2018-09-24T02:06:29.764Z,21.20
2018-09-24T02:07:29.488Z,21.00
2018-09-24T02:08:29.750Z,21.10
2018-09-24T02:09:29.491Z,21.70
2018-09-24T02:10:29.461Z,19.70
2018-09-24T02:11:29.704Z,21.50
2018-09-24T02:12:29.435Z,21.10
2018-09-24T02:13:29.715Z,22.10
2018-09-24T02:14:29.676Z,21.10
2018-09-24T02:15:29.398Z,21.00
2018-09-24T02:16:29.388Z,21.50
2018-09-24T02:17:29.397Z,20.00
2018-09-24T02:18:29.630Z,17.70
2018-09-24T02:19:29.651Z,17.90
2018-09-24T02:20:29.613Z,18.30
2018-09-24T02:21:29.340Z,19.20
2018-09-24T02:22:29.321Z,18.30
2018-09-24T02:23:29.312Z,19.50
2018-09-24T02:24:29.303Z,17.50
2018-09-24T02:25:29.560Z,16.90
2018-09-24T02:26:29.289Z,16.20
2018-09-24T02:27:29.531Z,18.90
2018-09-24T02:28:29.529Z,17.70
2018-09-24T02:29:29.504Z,16.30
2018-09-24T02:30:29.325Z,16.20
2018-09-24T02:31:29.223Z,16.40
2018-09-24T02:32:29.209Z,18.10
2018-09-24T02:33:29.459Z,17.20
2018-09-24T02:34:29.192Z,16.50
2018-09-24T02:35:29.175Z,16.20
2018-09-24T02:36:29.234Z,16.70
2018-09-24T02:37:29.162Z,17.40
2018-09-24T02:38:29.151Z,16.30
2018-09-24T02:39:29.139Z,17.20
2018-09-24T02:40:29.127Z,15.20
2018-09-24T02:41:29.395Z,15.70
2018-09-24T02:42:29.117Z,15.40
2018-09-24T02:43:29.099Z,15.50
2018-09-24T02:44:29.092Z,15.30
2018-09-24T02:45:29.070Z,15.60
2018-09-24T02:46:29.061Z,15.20
2018-09-24T02:47:29.340Z,15.40
2018-09-24T02:48:29.302Z,14.90
2018-09-24T02:49:29.032Z,16.40
2018-09-24T02:50:29.054Z,16.40
2018-09-24T02:51:29.273Z,16.10
2018-09-24T02:52:29.044Z,16.90
2018-09-24T02:53:28.989Z,15.10
2018-09-24T02:54:28.975Z,16.50
2018-09-24T02:55:28.975Z,15.80
2018-09-24T02:56:28.980Z,15.30
2018-09-24T02:57:29.256Z,14.00
2018-09-24T02:58:28.938Z,14.40
2018-09-24T02:59:29.180Z,14.90
2018-09-24T03:00:29.170Z,16.30
2018-09-24T03:01:29.063Z,14.40
2018-09-24T03:02:29.151Z,15.90
2018-09-24T03:03:28.885Z,14.80
2018-09-24T03:04:28.864Z,15.60
2018-09-24T03:05:28.852Z,14.80
2018-09-24T03:06:28.843Z,13.70
2018-09-24T03:07:28.844Z,14.00
2018-09-24T03:08:28.845Z,14.30
2018-09-24T03:09:28.835Z,14.40
2018-09-24T03:10:29.058Z,14.70
2018-09-24T03:11:28.786Z,14.70
2018-09-24T03:12:29.174Z,14.70
2018-09-24T03:13:28.764Z,15.60
2018-09-24T03:14:28.752Z,15.10
2018-09-24T03:15:28.761Z,15.20
2018-09-24T03:16:28.993Z,14.80
2018-09-24T03:17:29.029Z,15.00
2018-09-24T03:18:28.984Z,14.40
2018-09-24T03:19:28.695Z,15.00
2018-09-24T03:20:28.687Z,16.00
2018-09-24T03:21:28.683Z,16.40
2018-09-24T03:22:28.669Z,16.50
2018-09-24T03:23:28.657Z,14.80
2018-09-24T03:24:28.658Z,15.00
2018-09-24T03:25:28.634Z,16.20
2018-09-24T03:26:28.747Z,17.10
2018-09-24T03:27:28.623Z,16.50
2018-09-24T03:28:28.621Z,17.50
2018-09-24T03:29:28.601Z,17.20
2018-09-24T03:30:28.592Z,16.00
2018-09-24T03:31:28.563Z,15.70
2018-09-24T03:32:28.556Z,16.30
2018-09-24T03:33:28.546Z,17.50
2018-09-24T03:34:28.541Z,16.90
2018-09-24T03:35:28.805Z,16.70
2018-09-24T03:36:28.538Z,16.50
2018-09-24T03:37:28.505Z,15.40
2018-09-24T03:38:28.499Z,18.10
2018-09-24T03:39:28.478Z,17.60
2018-09-24T03:40:28.477Z,17.70
2018-09-24T03:41:28.461Z,16.90
2018-09-24T03:42:28.971Z,17.50
2018-09-24T03:43:28.444Z,17.30
2018-09-24T03:44:28.444Z,16.80
2018-09-24T03:45:28.423Z,17.40
2018-09-24T03:46:28.442Z,17.60
2018-09-24T03:47:28.389Z,17.30
2018-09-24T03:48:29.206Z,16.90
2018-09-24T03:49:28.366Z,17.20
2018-09-24T03:50:28.377Z,17.00
2018-09-24T03:51:28.345Z,16.80
2018-09-24T03:52:28.335Z,16.30
2018-09-24T03:53:28.329Z,16.00
2018-09-24T03:54:28.331Z,16.20
2018-09-24T03:55:28.300Z,16.00
2018-09-24T03:56:28.291Z,16.30
2018-09-24T03:57:28.313Z,16.60
2018-09-24T03:58:28.279Z,16.70
2018-09-24T03:59:28.257Z,16.80
2018-09-24T04:00:28.251Z,17.30
2018-09-24T04:01:28.238Z,17.00
2018-09-24T04:02:28.234Z,16.70
2018-09-24T04:03:28.214Z,17.30
2018-09-24T04:04:28.203Z,16.70
2018-09-24T04:05:28.218Z,16.00
2018-09-24T04:06:28.183Z,15.30
2018-09-24T04:07:28.170Z,16.40
2018-09-24T04:08:28.157Z,15.80
2018-09-24T04:09:28.153Z,15.70
2018-09-24T04:10:28.139Z,15.80
2018-09-24T04:11:28.388Z,15.60
2018-09-24T04:12:28.120Z,15.40
2018-09-24T04:13:28.388Z,15.80
2018-09-24T04:14:28.095Z,15.40
2018-09-24T04:15:28.077Z,16.30
2018-09-24T04:16:28.078Z,16.10
2018-09-24T04:17:28.060Z,16.30
2018-09-24T04:18:28.337Z,15.60
2018-09-24T04:19:28.045Z,15.00
2018-09-24T04:20:28.023Z,15.70
2018-09-24T04:21:28.022Z,15.50
2018-09-24T04:22:28.011Z,15.80
2018-09-24T04:23:28.005Z,15.90
2018-09-24T04:24:27.992Z,15.70
2018-09-24T04:25:27.969Z,15.50
2018-09-24T04:26:28.222Z,16.40
2018-09-24T04:27:27.970Z,15.70
2018-09-24T04:28:27.940Z,16.20
2018-09-24T04:29:28.210Z,15.70
2018-09-24T04:30:27.915Z,14.80
2018-09-24T04:31:27.912Z,15.10
2018-09-24T04:32:27.909Z,16.00
2018-09-24T04:33:27.891Z,16.20
2018-09-24T04:34:27.869Z,16.30
2018-09-24T04:35:28.121Z,15.50
2018-09-24T04:36:28.118Z,15.50
2018-09-24T04:37:27.832Z,14.80
2018-09-24T04:38:27.843Z,15.30
2018-09-24T04:39:27.831Z,15.10
2018-09-24T04:40:27.814Z,15.40
2018-09-24T04:41:27.789Z,15.00
2018-09-24T04:42:27.817Z,15.20
2018-09-24T04:43:27.786Z,14.20
2018-09-24T04:44:28.041Z,15.40
2018-09-24T04:45:27.874Z,13.80
2018-09-24T04:46:27.749Z,14.60
2018-09-24T04:47:27.735Z,14.90
2018-09-24T04:48:27.710Z,14.60
2018-09-24T04:49:27.710Z,14.30
2018-09-24T04:50:27.698Z,15.20
2018-09-24T04:51:27.682Z,16.00
2018-09-24T04:52:27.799Z,14.90
2018-09-24T04:53:27.662Z,14.90
2018-09-24T04:54:27.656Z,13.50
2018-09-24T04:55:27.653Z,14.00
2018-09-24T04:56:27.997Z,13.80
2018-09-24T04:57:27.612Z,13.10
2018-09-24T04:58:27.636Z,13.20
2018-09-24T04:59:27.858Z,13.40
2018-09-24T05:00:27.589Z,12.80
2018-09-24T05:01:27.839Z,12.80
2018-09-24T05:02:27.562Z,13.30
2018-09-24T05:03:27.557Z,12.80
2018-09-24T05:04:27.544Z,14.40
2018-09-24T05:05:27.527Z,13.80
2018-09-24T05:06:27.801Z,14.20
2018-09-24T05:07:27.509Z,14.00
2018-09-24T05:08:27.765Z,14.10
2018-09-24T05:09:27.480Z,11.90
2018-09-24T05:10:27.746Z,12.00
2018-09-24T05:11:27.567Z,13.10
2018-09-24T05:12:27.701Z,12.40
2018-09-24T05:13:27.449Z,13.00
2018-09-24T05:14:27.430Z,12.60
2018-09-24T05:15:27.411Z,14.00
2018-09-24T05:16:27.824Z,12.40
2018-09-24T05:17:27.394Z,12.10
2018-09-24T05:18:27.384Z,12.90
2018-09-24T05:19:27.385Z,12.80
2018-09-24T05:20:27.371Z,13.00
2018-09-24T05:21:27.347Z,12.80
2018-09-24T05:22:27.601Z,12.10
2018-09-24T05:23:27.476Z,11.50
2018-09-24T05:24:27.330Z,12.10
2018-09-24T05:25:27.569Z,12.70
2018-09-24T05:26:27.296Z,12.40
2018-09-24T05:27:27.376Z,12.10
2018-09-24T05:28:27.284Z,12.40
2018-09-24T05:29:27.541Z,12.30
2018-09-24T05:30:27.404Z,11.90
2018-09-24T05:31:27.615Z,12.60
2018-09-24T05:32:27.246Z,11.70
2018-09-24T05:33:27.239Z,12.30
2018-09-24T05:34:27.262Z,12.50
2018-09-24T05:35:28.504Z,12.90
2018-09-24T05:36:27.463Z,11.40
2018-09-24T05:37:27.172Z,11.70
2018-09-24T05:38:27.185Z,12.00
2018-09-24T05:39:27.150Z,11.80
2018-09-24T05:40:27.172Z,11.70
2018-09-24T05:41:27.125Z,11.90
2018-09-24T05:42:27.124Z,11.30
2018-09-24T05:43:27.114Z,11.30
2018-09-24T05:44:27.105Z,12.20
2018-09-24T05:45:27.094Z,11.90
2018-09-24T05:46:28.276Z,11.00
2018-09-24T05:47:27.070Z,10.70
2018-09-24T05:48:27.323Z,11.80
2018-09-24T05:49:27.048Z,11.80
2018-09-24T05:50:27.075Z,11.40
2018-09-24T05:51:27.162Z,11.10
2018-09-24T05:52:27.039Z,11.40
2018-09-24T05:53:27.271Z,12.00
2018-09-24T05:54:27.071Z,11.50
2018-09-24T05:55:27.002Z,11.90
2018-09-24T05:56:26.978Z,12.20
2018-09-24T05:57:26.955Z,11.50
2018-09-24T05:58:26.937Z,11.70
2018-09-24T05:59:26.932Z,12.30
2018-09-24T06:00:30.462Z,11.80
2018-09-24T06:01:26.930Z,11.50
2018-09-24T06:02:26.932Z,12.10
2018-09-24T06:03:26.953Z,11.90
2018-09-24T06:04:27.208Z,11.60
2018-09-24T06:05:26.867Z,10.80
2018-09-24T06:06:26.876Z,10.50
2018-09-24T06:07:26.848Z,10.30
2018-09-24T06:08:27.125Z,12.00
2018-09-24T06:09:26.822Z,11.60
2018-09-24T06:10:26.820Z,11.40
2018-09-24T06:11:26.812Z,10.70
2018-09-24T06:12:26.783Z,10.60
2018-09-24T06:13:26.798Z,10.60
2018-09-24T06:14:27.296Z,10.00
2018-09-24T06:15:26.759Z,10.10
2018-09-24T06:16:27.396Z,10.50
2018-09-24T06:17:26.728Z,10.00
2018-09-24T06:18:26.728Z,10.20
2018-09-24T06:19:26.725Z,10.60
2018-09-24T06:20:26.707Z,10.10
2018-09-24T06:21:26.956Z,9.10
2018-09-24T06:22:26.703Z,9.50
2018-09-24T06:23:26.698Z,9.30
2018-09-24T06:24:26.693Z,10.40
2018-09-24T06:25:26.658Z,9.40
2018-09-24T06:26:26.631Z,9.90
2018-09-24T06:27:26.623Z,8.80
2018-09-24T06:28:26.921Z,8.90
2018-09-24T06:29:27.637Z,9.40
2018-09-24T06:30:26.601Z,9.70
2018-09-24T06:31:31.066Z,9.10
2018-09-24T06:32:26.569Z,8.50
2018-09-24T06:33:26.972Z,8.80
2018-09-24T06:34:26.634Z,9.00
2018-09-24T06:35:26.564Z,8.50
2018-09-24T06:36:26.527Z,8.30
2018-09-24T06:37:26.514Z,8.30
2018-09-24T06:38:26.517Z,7.80
2018-09-24T06:39:26.498Z,8.60
2018-09-24T06:40:26.506Z,8.30
2018-09-24T06:41:26.500Z,8.50
2018-09-24T06:42:26.491Z,8.60
2018-09-24T06:43:26.454Z,8.30
2018-09-24T06:44:26.435Z,7.60
2018-09-24T06:45:26.421Z,7.80
2018-09-24T06:46:29.388Z,7.50
2018-09-24T06:47:26.449Z,9.40
2018-09-24T06:48:26.419Z,7.50
2018-09-24T06:49:26.459Z,7.70
2018-09-24T06:50:26.367Z,8.00
2018-09-24T06:51:26.374Z,7.60
2018-09-24T06:52:26.433Z,8.10
2018-09-24T06:53:26.603Z,7.50
2018-09-24T06:54:26.337Z,7.90
2018-09-24T06:55:26.338Z,7.60
2018-09-24T06:56:26.445Z,7.20
2018-09-24T06:57:26.295Z,7.80
2018-09-24T06:58:26.555Z,7.80
2018-09-24T06:59:26.332Z,7.10
2018-09-24T07:00:26.317Z,7.40
2018-09-24T07:01:27.709Z,7.80
2018-09-24T07:02:26.247Z,7.00
2018-09-24T07:03:26.229Z,8.10
2018-09-24T07:04:26.218Z,7.70
2018-09-24T07:05:46.908Z,6.80
2018-09-24T07:06:26.224Z,7.40
2018-09-24T07:07:26.187Z,6.80
2018-09-24T07:08:26.182Z,7.30
2018-09-24T07:09:26.173Z,6.90
2018-09-24T07:10:26.159Z,6.60
2018-09-24T07:11:26.244Z,6.70
2018-09-24T07:12:26.660Z,6.40
2018-09-24T07:13:26.135Z,6.70
2018-09-24T07:14:26.114Z,6.70
2018-09-24T07:15:26.097Z,7.20
2018-09-24T07:16:26.082Z,6.30
2018-09-24T07:17:27.527Z,6.70
2018-09-24T07:18:26.650Z,6.50
2018-09-24T07:19:26.058Z,6.10
2018-09-24T07:20:27.923Z,5.60
2018-09-24T07:21:26.057Z,5.80
2018-09-24T07:22:26.057Z,6.00
2018-09-24T07:23:26.008Z,6.40
2018-09-24T07:24:26.006Z,6.70
2018-09-24T07:25:25.979Z,6.30
2018-09-24T07:26:25.995Z,5.90
2018-09-24T07:27:26.021Z,6.90
2018-09-24T07:28:26.067Z,5.90
2018-09-24T07:29:26.209Z,5.90
2018-09-24T07:30:25.964Z,5.90
2018-09-24T07:31:26.382Z,5.40
2018-09-24T07:32:25.912Z,6.10
2018-09-24T07:33:26.157Z,5.50
2018-09-24T07:34:25.887Z,5.90
2018-09-24T07:35:25.878Z,5.90
2018-09-24T07:36:25.870Z,5.40
2018-09-24T07:37:25.850Z,5.00
2018-09-24T07:38:25.838Z,5.20
2018-09-24T07:39:25.861Z,4.70
2018-09-24T07:40:25.832Z,5.00
2018-09-24T07:41:25.813Z,5.40
2018-09-24T07:42:26.067Z,4.90
2018-09-24T07:43:26.095Z,5.10
2018-09-24T07:44:26.066Z,5.20
2018-09-24T07:45:25.781Z,5.20
2018-09-24T07:46:25.764Z,4.70
2018-09-24T07:47:25.769Z,4.90
2018-09-24T07:48:25.734Z,4.70
2018-09-24T07:49:25.728Z,4.70
2018-09-24T07:50:25.714Z,5.00
2018-09-24T07:51:25.725Z,4.20
2018-09-24T07:52:25.692Z,4.30
2018-09-24T07:53:25.947Z,3.80
2018-09-24T07:54:25.667Z,4.00
2018-09-24T07:55:25.693Z,3.90
2018-09-24T07:56:25.660Z,4.00
2018-09-24T07:57:25.672Z,4.00
2018-09-24T07:58:26.144Z,3.70
2018-09-24T07:59:25.700Z,3.60
2018-09-24T08:00:25.605Z,4.00
2018-09-24T08:01:25.593Z,3.30
2018-09-24T08:02:25.600Z,3.50
2018-09-24T08:03:25.572Z,3.60
2018-09-24T08:04:25.590Z,3.50
2018-09-24T08:05:25.590Z,3.40
2018-09-24T08:06:25.533Z,3.10
2018-09-24T08:07:25.563Z,3.40
2018-09-24T08:08:25.803Z,3.40
2018-09-24T08:09:25.775Z,3.20
2018-09-24T08:10:25.494Z,3.60
2018-09-24T08:11:25.744Z,3.30
2018-09-24T08:12:25.504Z,3.00
2018-09-24T08:13:25.461Z,3.40
2018-09-24T08:14:25.460Z,3.30
2018-09-24T08:15:28.374Z,3.30
2018-09-24T08:16:26.027Z,3.30
2018-09-24T08:17:25.414Z,3.00
2018-09-24T08:18:26.297Z,3.40
2018-09-24T08:19:25.478Z,3.00
2018-09-24T08:20:25.690Z,3.20
2018-09-24T08:21:25.386Z,3.10
2018-09-24T08:22:25.817Z,2.90
2018-09-24T08:23:25.363Z,3.20
2018-09-24T08:24:25.334Z,3.00
2018-09-24T08:25:25.606Z,3.30
2018-09-24T08:26:25.309Z,3.20
2018-09-24T08:27:25.430Z,2.80
2018-09-24T08:28:25.568Z,3.10
2018-09-24T08:29:25.282Z,2.80
2018-09-24T08:30:25.274Z,3.00
2018-09-24T08:31:25.260Z,2.90
2018-09-24T08:32:25.529Z,3.00
2018-09-24T08:33:25.257Z,3.00
2018-09-24T08:34:25.220Z,3.00
2018-09-24T08:35:25.224Z,2.80
2018-09-24T08:36:25.257Z,2.90
2018-09-24T08:37:25.214Z,3.10
2018-09-24T08:38:25.196Z,2.50
2018-09-24T08:39:25.183Z,2.90
2018-09-24T08:40:25.163Z,2.60
2018-09-24T08:41:25.427Z,2.90
2018-09-24T08:42:25.205Z,2.40
2018-09-24T08:43:25.135Z,2.40
2018-09-24T08:44:25.691Z,2.30
2018-09-24T08:45:28.082Z,2.60
2018-09-24T08:46:25.092Z,2.90
2018-09-24T08:47:25.099Z,2.30
2018-09-24T08:48:25.071Z,2.60
2018-09-24T08:49:25.061Z,2.40
2018-09-24T08:50:25.187Z,2.60
2018-09-24T08:51:25.049Z,2.30
2018-09-24T08:52:25.034Z,2.50
2018-09-24T08:53:25.308Z,2.50
2018-09-24T08:54:25.006Z,2.50
2018-09-24T08:55:25.271Z,2.50
2018-09-24T08:56:24.980Z,2.60
2018-09-24T08:57:24.983Z,2.60
2018-09-24T08:58:24.956Z,2.10
2018-09-24T08:59:24.964Z,2.30
2018-09-24T09:00:24.934Z,2.40
2018-09-24T09:01:25.257Z,2.60
2018-09-24T09:02:25.767Z,2.30
2018-09-24T09:03:24.932Z,2.50
2018-09-24T09:04:27.538Z,2.40
2018-09-24T09:05:24.894Z,2.60
2018-09-24T09:06:24.929Z,2.50
2018-09-24T09:07:24.883Z,2.20
2018-09-24T09:08:24.906Z,2.10
2018-09-24T09:09:24.873Z,2.60
2018-09-24T09:10:24.828Z,2.30
2018-09-24T09:11:24.818Z,2.20
2018-09-24T09:12:24.798Z,2.00
2018-09-24T09:13:24.793Z,2.00
2018-09-24T09:14:24.784Z,2.00
2018-09-24T09:15:25.836Z,2.40
2018-09-24T09:16:24.817Z,2.20
2018-09-24T09:17:24.797Z,2.20
2018-09-24T09:18:24.757Z,2.30
2018-09-24T09:19:24.734Z,2.30
2018-09-24T09:20:24.979Z,2.20
2018-09-24T09:21:24.703Z,2.20
2018-09-24T09:22:24.699Z,2.20
2018-09-24T09:23:24.696Z,2.20
2018-09-24T09:24:24.676Z,2.00
2018-09-24T09:25:24.664Z,1.80
2018-09-24T09:26:24.678Z,2.00
2018-09-24T09:27:24.696Z,2.20
2018-09-24T09:28:24.640Z,1.90
2018-09-24T09:29:24.790Z,1.90
2018-09-24T09:30:24.663Z,1.80
2018-09-24T09:31:27.501Z,2.40
2018-09-24T09:32:24.576Z,1.90
2018-09-24T09:33:24.597Z,2.10
2018-09-24T09:34:24.574Z,1.90
2018-09-24T09:35:24.555Z,1.60
2018-09-24T09:36:24.537Z,1.40
2018-09-24T09:37:24.538Z,1.70
2018-09-24T09:38:24.507Z,1.90
2018-09-24T09:39:24.651Z,1.80
2018-09-24T09:40:24.541Z,1.40
2018-09-24T09:41:24.643Z,1.50
2018-09-24T09:42:24.473Z,1.70
2018-09-24T09:43:25.629Z,1.70
2018-09-24T09:44:24.455Z,1.70
2018-09-24T09:45:24.714Z,1.80
2018-09-24T09:46:24.806Z,1.60
2018-09-24T09:47:24.413Z,2.20
2018-09-24T09:48:24.542Z,1.40
2018-09-24T09:49:24.400Z,1.60
2018-09-24T09:50:24.385Z,1.60
2018-09-24T09:51:24.365Z,1.40
2018-09-24T09:52:24.366Z,1.50
2018-09-24T09:53:24.373Z,1.70
2018-09-24T09:54:24.345Z,1.80
2018-09-24T09:55:24.351Z,1.50
2018-09-24T09:56:24.327Z,1.50
2018-09-24T09:57:24.301Z,1.60
2018-09-24T09:58:24.306Z,1.60
2018-09-24T09:59:24.284Z,1.60
2018-09-24T10:00:24.298Z,1.50
2018-09-24T10:01:24.272Z,1.60
2018-09-24T10:02:24.588Z,1.60
2018-09-24T10:03:24.494Z,1.50
2018-09-24T10:04:24.223Z,1.50
2018-09-24T10:05:24.217Z,1.90
2018-09-24T10:06:24.215Z,1.80
2018-09-24T10:07:24.193Z,2.10
2018-09-24T10:08:24.195Z,1.90
2018-09-24T10:09:24.312Z,1.40
2018-09-24T10:10:24.158Z,1.50
2018-09-24T10:11:24.168Z,1.30
2018-09-24T10:12:24.245Z,1.80
2018-09-24T10:13:24.122Z,1.50
2018-09-24T10:14:24.405Z,1.40
2018-09-24T10:15:24.122Z,1.50
2018-09-24T10:16:24.121Z,1.30
2018-09-24T10:17:24.080Z,1.50
2018-09-24T10:18:25.134Z,1.20
2018-09-24T10:19:24.069Z,1.10
2018-09-24T10:20:24.045Z,1.40
2018-09-24T10:21:24.317Z,1.60
2018-09-24T10:22:24.046Z,1.50
2018-09-24T10:23:24.025Z,1.50
2018-09-24T10:24:24.015Z,1.30
2018-09-24T10:25:30.057Z,1.20
2018-09-24T10:26:23.979Z,1.30
2018-09-24T10:27:24.098Z,0.90
2018-09-24T10:28:24.306Z,1.30
2018-09-24T10:29:24.217Z,1.60
2018-09-24T10:30:27.717Z,1.20
2018-09-24T10:31:23.973Z,1.20
2018-09-24T10:32:23.923Z,1.40
2018-09-24T10:33:23.931Z,1.30
2018-09-24T10:34:23.888Z,1.40
2018-09-24T10:35:23.891Z,1.40
2018-09-24T10:36:23.874Z,1.40
2018-09-24T10:37:24.189Z,1.60
2018-09-24T10:38:24.124Z,1.70
2018-09-24T10:39:23.840Z,1.40
2018-09-24T10:40:23.866Z,1.90
2018-09-24T10:41:24.505Z,1.70
2018-09-24T10:42:23.961Z,1.40
2018-09-24T10:43:23.800Z,1.70
2018-09-24T10:44:23.801Z,1.40
2018-09-24T10:45:23.775Z,1.20
2018-09-24T10:46:23.771Z,1.80
2018-09-24T10:47:23.948Z,1.60
2018-09-24T10:48:24.005Z,1.70
2018-09-24T10:49:23.999Z,1.60
2018-09-24T10:50:23.716Z,1.60
2018-09-24T10:51:23.974Z,1.70
2018-09-24T10:52:23.705Z,1.80
2018-09-24T10:53:23.704Z,1.50
2018-09-24T10:54:23.796Z,1.60
2018-09-24T10:55:23.681Z,1.40
2018-09-24T10:56:23.917Z,1.40
2018-09-24T10:57:23.738Z,1.60
2018-09-24T10:58:26.295Z,1.80
2018-09-24T10:59:23.642Z,1.60
2018-09-24T11:00:23.608Z,1.30
2018-09-24T11:01:23.709Z,1.60
2018-09-24T11:02:23.654Z,1.50
2018-09-24T11:03:23.839Z,1.60
2018-09-24T11:04:23.559Z,1.70
2018-09-24T11:05:23.574Z,1.50
2018-09-24T11:06:25.547Z,1.50
2018-09-24T11:07:23.546Z,1.30
2018-09-24T11:08:23.509Z,1.40
2018-09-24T11:09:23.546Z,1.50
2018-09-24T11:10:23.554Z,1.20
2018-09-24T11:11:23.476Z,1.40
2018-09-24T11:12:23.490Z,1.10
2018-09-24T11:13:23.458Z,1.30
2018-09-24T11:14:23.464Z,1.20
2018-09-24T11:15:23.453Z,1.10
2018-09-24T11:16:23.518Z,1.00
2018-09-24T11:17:23.604Z,1.00
2018-09-24T11:18:23.675Z,1.20
2018-09-24T11:19:23.394Z,1.00
2018-09-24T11:20:23.387Z,1.00
2018-09-24T11:21:23.368Z,1.10
2018-09-24T11:22:23.757Z,1.10
2018-09-24T11:23:23.348Z,1.30
2018-09-24T11:24:23.611Z,0.90
2018-09-24T11:25:23.341Z,1.20
2018-09-24T11:27:24.791Z,1.20
2018-09-24T11:28:23.409Z,1.40
2018-09-24T11:29:23.719Z,1.10
2018-09-24T11:30:24.261Z,1.20
2018-09-24T11:31:23.272Z,1.30
2018-09-24T11:32:25.503Z,1.20
